Time;durP1;ratioP1;P1;durP2;ratioP2;P2;SDS_P1;SDS_P2;PMS_P1;PMS_P2;Temp;Humidity;BMP_temperature;BMP_pressure;BME280_temperature;BME280_humidity;BME280_pressure;Samples;Min_cycle;Max_cycle;Signal;HPM_P1;HPM_P2
2023/09/09 00:01:31;;;;;;;20.00;14.90;;;;;;;13.39;77.67;100344.07;217192;1256;142067;-75
2023/09/09 00:06:34;;;;;;;25.10;15.40;;;;;;;13.36;77.56;100344.06;217766;1257;141312;-75
2023/09/09 00:11:38;;;;;;;21.80;16.30;;;;;;;13.37;78.21;100341.68;217564;1257;141782;-74
2023/09/09 00:16:42;;;;;;;20.00;15.00;;;;;;;13.37;78.24;100343.33;218557;1260;140252;-75
2023/09/09 00:21:46;;;;;;;19.20;15.30;;;;;;;13.29;78.10;100343.61;217779;1259;141896;-76
2023/09/09 00:26:50;;;;;;;20.10;15.90;;;;;;;13.22;78.10;100340.29;217734;1257;140630;-76
2023/09/09 00:31:53;;;;;;;16.60;13.90;;;;;;;13.14;78.41;100330.86;217767;1256;139886;-76
2023/09/09 00:36:56;;;;;;;16.40;13.30;;;;;;;13.05;78.32;100331.10;218161;1256;140433;-76
2023/09/09 00:41:59;;;;;;;19.70;13.70;;;;;;;13.04;78.73;100335.56;217495;1260;140856;-76
2023/09/09 00:47:03;;;;;;;15.90;14.20;;;;;;;12.98;78.78;100328.59;217762;1257;141525;-77
2023/09/09 00:52:06;;;;;;;18.90;13.60;;;;;;;13.00;79.12;100327.82;217826;1256;141267;-82
2023/09/09 00:57:09;;;;;;;19.70;15.00;;;;;;;12.96;79.00;100324.27;218168;1260;141838;-81
2023/09/09 01:02:14;;;;;;;16.20;13.40;;;;;;;12.92;78.86;100322.94;218553;1256;140825;-82
2023/09/09 01:07:19;;;;;;;15.40;12.70;;;;;;;12.85;78.78;100331.77;217509;1260;140841;-74
2023/09/09 01:12:24;;;;;;;18.90;14.30;;;;;;;12.74;78.86;100334.50;218789;1260;141337;-74
2023/09/09 01:17:27;;;;;;;16.80;15.00;;;;;;;12.70;78.94;100344.20;217810;1256;140249;-78
2023/09/09 01:22:35;;;;;;;18.80;13.80;;;;;;;12.74;79.62;100343.27;218081;1257;142049;-70
2023/09/09 01:27:38;;;;;;;15.40;13.70;;;;;;;12.75;79.29;100343.89;219818;1257;141130;-77
2023/09/09 01:32:41;;;;;;;15.10;13.50;;;;;;;12.69;79.38;100343.52;219619;1257;141011;-75
2023/09/09 01:37:45;;;;;;;14.40;11.30;;;;;;;12.62;79.15;100345.67;219423;1256;140937;-73
2023/09/09 01:42:49;;;;;;;13.00;11.70;;;;;;;12.56;79.17;100347.20;217988;1260;141382;-71
2023/09/09 01:47:52;;;;;;;22.30;13.00;;;;;;;12.49;79.18;100346.02;219277;1256;141509;-72
2023/09/09 01:52:55;;;;;;;15.40;13.60;;;;;;;12.48;79.33;100347.19;218845;1256;140548;-74
2023/09/09 01:57:58;;;;;;;16.30;12.30;;;;;;;12.49;79.48;100342.07;217789;1257;140937;-75
2023/09/09 02:03:01;;;;;;;13.30;11.80;;;;;;;12.50;79.47;100340.11;217760;1256;140528;-74
2023/09/09 02:08:06;;;;;;;20.40;12.80;;;;;;;12.46;79.56;100340.02;217658;1260;141562;-73
2023/09/09 02:13:08;;;;;;;17.00;12.40;;;;;;;12.42;79.67;100344.52;217562;1260;140597;-73
2023/09/09 02:18:13;;;;;;;19.30;12.50;;;;;;;12.39;79.93;100349.42;218014;1257;142548;-78
2023/09/09 02:23:21;;;;;;;14.40;12.90;;;;;;;12.39;79.81;100347.48;218289;1257;140846;-72
2023/09/09 02:28:25;;;;;;;14.50;11.50;;;;;;;12.35;79.64;100347.23;217733;1257;140739;-72
2023/09/09 02:33:29;;;;;;;15.20;11.20;;;;;;;12.26;79.72;100345.85;217691;1257;141757;-70
2023/09/09 02:38:33;;;;;;;16.70;12.30;;;;;;;12.19;79.73;100348.37;217798;1260;141740;-70
2023/09/09 02:43:37;;;;;;;12.40;11.10;;;;;;;12.14;79.94;100344.91;217749;1257;140920;-79
2023/09/09 02:48:42;;;;;;;14.80;12.20;;;;;;;12.09;79.97;100342.39;218099;1257;144314;-68
2023/09/09 02:53:46;;;;;;;11.70;10.50;;;;;;;12.06;80.21;100344.77;218253;1257;140352;-84
2023/09/09 02:58:50;;;;;;;11.30;10.20;;;;;;;12.00;80.46;100339.39;218056;1257;141155;-70
2023/09/09 03:03:54;;;;;;;16.60;11.90;;;;;;;11.98;80.81;100344.44;218142;1260;140815;-69
2023/09/09 03:08:58;;;;;;;16.80;13.10;;;;;;;12.02;80.85;100346.32;218011;1257;141350;-76
2023/09/09 03:14:02;;;;;;;18.50;12.80;;;;;;;12.02;80.91;100347.19;218849;1260;141580;-73
2023/09/09 03:19:05;;;;;;;15.90;11.00;;;;;;;11.98;80.84;100348.14;220265;1256;141567;-73
2023/09/09 03:24:08;;;;;;;21.10;11.50;;;;;;;11.94;80.90;100353.92;220382;1257;140685;-77
2023/09/09 03:29:09;;;;;;;15.90;12.40;;;;;;;11.90;80.98;100351.79;219181;1257;140432;-77
2023/09/09 03:34:12;;;;;;;16.10;10.60;;;;;;;11.87;80.90;100350.48;219414;1257;141211;-74
2023/09/09 03:39:18;;;;;;;14.90;11.50;;;;;;;11.84;81.07;100347.14;218127;1257;141432;-71
2023/09/09 03:44:20;;;;;;;20.70;12.10;;;;;;;11.81;81.23;100344.41;219407;1260;141307;-73
2023/09/09 03:49:23;;;;;;;16.70;10.10;;;;;;;11.83;81.65;100344.55;218246;1260;141207;-73
2023/09/09 03:54:26;;;;;;;19.30;10.70;;;;;;;11.84;81.68;100345.79;217569;1257;140896;-74
2023/09/09 03:59:31;;;;;;;12.50;9.90;;;;;;;11.81;81.66;100345.77;217644;1257;141564;-74
2023/09/09 04:04:35;;;;;;;16.20;10.30;;;;;;;11.73;81.20;100347.80;218094;1257;140929;-74
2023/09/09 04:09:40;;;;;;;17.60;10.90;;;;;;;11.66;81.52;100347.02;217748;1257;141817;-76
2023/09/09 04:14:44;;;;;;;13.90;10.50;;;;;;;11.62;81.91;100347.24;218197;1256;233923;-77
2023/09/09 04:19:47;;;;;;;16.70;11.60;;;;;;;11.60;82.28;100347.61;218068;1259;141774;-74
2023/09/09 04:24:53;;;;;;;11.80;10.60;;;;;;;11.61;82.28;100350.05;218221;1256;141298;-77
2023/09/09 04:29:58;;;;;;;11.20;9.90;;;;;;;11.61;82.32;100356.46;218151;1259;140660;-77
2023/09/09 04:35:01;;;;;;;13.10;10.80;;;;;;;11.64;82.00;100358.88;217689;1257;142162;-77
2023/09/09 04:40:05;;;;;;;14.50;10.40;;;;;;;11.67;82.30;100359.82;217712;1257;140733;-75
2023/09/09 04:45:09;;;;;;;15.20;11.40;;;;;;;11.76;82.55;100362.11;217711;1257;141943;-77
2023/09/09 04:50:13;;;;;;;11.00;9.60;;;;;;;11.86;82.78;100360.39;217982;1256;141671;-74
2023/09/09 04:55:20;;;;;;;14.30;10.80;;;;;;;11.93;82.63;100360.89;217764;1257;140583;-72
2023/09/09 05:00:23;;;;;;;12.70;10.70;;;;;;;11.99;82.48;100359.77;218427;1257;141354;-72
2023/09/09 05:05:27;;;;;;;15.80;11.90;;;;;;;12.09;82.89;100361.63;217735;1257;140681;-70
2023/09/09 05:10:33;;;;;;;11.00;9.90;;;;;;;12.26;83.51;100360.81;218696;1257;141525;-83
2023/09/09 05:15:38;;;;;;;14.70;11.50;;;;;;;12.43;83.34;100366.27;218165;1257;139949;-81
2023/09/09 05:20:44;;;;;;;14.00;11.70;;;;;;;12.64;83.78;100366.73;218273;1259;140587;-76
2023/09/09 05:25:48;;;;;;;17.60;12.00;;;;;;;12.84;83.91;100371.19;220481;1256;140548;-73
2023/09/09 05:30:52;;;;;;;14.90;11.20;;;;;;;13.03;83.79;100375.48;219071;1257;140521;-71
2023/09/09 05:35:56;;;;;;;15.50;13.60;;;;;;;13.22;83.90;100370.97;218141;1257;141340;-72
2023/09/09 05:40:59;;;;;;;13.60;11.40;;;;;;;13.43;84.23;100372.58;217632;1257;141338;-75
2023/09/09 05:46:03;;;;;;;16.20;13.10;;;;;;;13.63;84.48;100374.70;218336;1258;140509;-74
2023/09/09 05:51:08;;;;;;;18.30;14.30;;;;;;;13.85;84.91;100376.90;217648;1256;141982;-73
2023/09/09 05:56:12;;;;;;;14.70;13.20;;;;;;;14.07;84.89;100374.09;218793;1260;140787;-71
2023/09/09 06:01:16;;;;;;;18.60;13.40;;;;;;;14.27;85.10;100376.83;217942;1260;141931;-76
2023/09/09 06:06:22;;;;;;;27.60;16.40;;;;;;;14.50;85.40;100378.56;217322;1262;142833;-74
2023/09/09 06:11:25;;;;;;;22.50;14.80;;;;;;;14.74;85.62;100380.76;218618;1260;140614;-77
2023/09/09 06:16:29;;;;;;;14.90;13.30;;;;;;;15.00;86.23;100385.75;217706;1260;141698;-70
2023/09/09 06:21:36;;;;;;;16.90;13.70;;;;;;;15.28;86.54;100389.87;217793;1262;140881;-74
2023/09/09 06:26:39;;;;;;;16.00;14.30;;;;;;;15.53;86.68;100393.36;218149;1257;140458;-73
2023/09/09 06:31:43;;;;;;;16.30;14.30;;;;;;;15.79;86.83;100394.48;217911;1257;140906;-72
2023/09/09 06:36:47;;;;;;;15.90;14.30;;;;;;;16.11;87.12;100399.57;217745;1258;142001;-74
2023/09/09 06:41:50;;;;;;;16.70;14.30;;;;;;;16.53;87.44;100394.98;218452;1257;140464;-74
2023/09/09 06:46:53;;;;;;;20.10;14.90;;;;;;;16.96;87.24;100398.85;217591;1260;141406;-76
2023/09/09 06:51:57;;;;;;;19.80;14.20;;;;;;;17.36;87.20;100398.35;217785;1261;140844;-75
2023/09/09 06:57:00;;;;;;;15.80;13.70;;;;;;;17.84;86.77;100394.95;217600;1263;140783;-73
2023/09/09 07:02:03;;;;;;;14.90;11.80;;;;;;;18.60;86.44;100397.84;217491;1263;141484;-74
2023/09/09 07:07:07;;;;;;;16.40;13.50;;;;;;;19.53;85.71;100395.45;219175;1260;140230;-71
2023/09/09 07:12:16;;;;;;;14.50;13.00;;;;;;;20.55;84.93;100398.02;217213;1263;141837;-70
2023/09/09 07:17:20;;;;;;;15.00;12.30;;;;;;;21.96;84.21;100397.59;217668;1256;141206;-71
2023/09/09 07:22:23;;;;;;;17.40;12.20;;;;;;;23.45;82.67;100397.37;218169;1257;141464;-70
2023/09/09 07:27:26;;;;;;;11.60;10.40;;;;;;;24.80;81.03;100400.15;217367;1262;140177;-70
2023/09/09 07:32:31;;;;;;;16.00;11.90;;;;;;;25.78;78.70;100400.69;217700;1262;140917;-71
2023/09/09 07:37:34;;;;;;;11.80;10.60;;;;;;;26.38;76.29;100401.31;218460;1260;140967;-68
2023/09/09 07:42:37;;;;;;;9.90;9.00;;;;;;;26.85;73.67;100401.14;219564;1260;140994;-69
2023/09/09 07:47:40;;;;;;;9.30;8.50;;;;;;;27.21;70.72;100403.74;218274;1260;140476;-73
2023/09/09 07:52:42;;;;;;;10.00;9.00;;;;;;;27.59;69.20;100405.96;217345;1258;140140;-72
2023/09/09 07:57:45;;;;;;;9.00;8.30;;;;;;;27.90;67.84;100399.56;217492;1260;140626;-76
2023/09/09 08:02:48;;;;;;;11.40;7.80;;;;;;;28.19;66.78;100397.91;217505;1258;141022;-72
2023/09/09 08:07:51;;;;;;;8.60;7.80;;;;;;;28.30;65.18;100394.70;217956;1260;141041;-74
2023/09/09 08:12:54;;;;;;;10.90;8.30;;;;;;;28.20;63.46;100392.09;217530;1260;140997;-72
2023/09/09 08:17:57;;;;;;;11.80;8.10;;;;;;;28.22;62.75;100390.98;218494;1260;140883;-70
2023/09/09 08:23:01;;;;;;;7.20;6.60;;;;;;;28.21;61.53;100392.58;217662;1257;140593;-71
2023/09/09 08:28:05;;;;;;;6.80;6.20;;;;;;;28.27;60.72;100401.27;217701;1258;140738;-72
2023/09/09 08:33:08;;;;;;;8.40;6.20;;;;;;;28.24;58.94;100399.65;217537;1257;141702;-76
2023/09/09 08:38:11;;;;;;;6.30;5.80;;;;;;;28.11;57.84;100404.35;217523;1257;139567;-73
2023/09/09 08:43:24;;;;;;;7.70;6.10;;;;;;;28.17;57.79;100407.79;217468;1257;140040;-74
2023/09/09 08:48:32;;;;;;;11.10;6.30;;;;;;;28.19;56.14;100408.02;218006;1260;140230;-76
2023/09/09 08:53:39;;;;;;;6.10;5.60;;;;;;;28.23;55.87;100408.65;217628;1260;162643;-73
2023/09/09 08:58:45;;;;;;;6.00;5.50;;;;;;;28.30;55.01;100416.64;217569;1257;139932;-73
2023/09/09 09:03:50;;;;;;;7.60;6.70;;;;;;;28.32;54.90;100419.33;217633;1260;140343;-73
2023/09/09 09:08:55;;;;;;;12.60;7.00;;;;;;;28.40;54.32;100421.50;217413;1260;140474;-73
2023/09/09 09:14:10;;;;;;;7.10;6.40;;;;;;;28.52;54.60;100419.55;217508;1257;140195;-77
2023/09/09 09:19:31;;;;;;;12.30;6.60;;;;;;;28.60;53.31;100414.82;218542;1257;139915;-71
2023/09/09 09:24:43;;;;;;;7.60;6.90;;;;;;;28.52;53.16;100413.61;217525;1257;139688;-74
2023/09/09 09:29:47;;;;;;;6.10;5.60;;;;;;;28.63;53.33;100408.81;218339;1257;139644;-74
2023/09/09 09:34:51;;;;;;;6.90;6.40;;;;;;;28.68;52.19;100400.67;218750;1257;140163;-81
2023/09/09 09:39:54;;;;;;;6.40;5.80;;;;;;;28.64;51.86;100401.48;217895;1257;140279;-79
2023/09/09 09:45:10;;;;;;;7.90;6.10;;;;;;;28.74;51.82;100398.39;217627;1260;140169;-74
2023/09/09 09:50:28;;;;;;;;;;;;;;;28.86;51.69;100388.66;217590;1258;139942;-76
2023/09/09 09:55:35;;;;;;;5.90;5.40;;;;;;;28.89;51.15;100389.48;218066;1257;125797;-74
2023/09/09 10:00:42;;;;;;;8.10;6.40;;;;;;;29.05;51.03;100382.83;218108;1260;140809;-73
2023/09/09 10:06:26;;;;;;;7.40;6.20;;;;;;;29.15;50.47;100387.67;217998;1257;140248;-75
2023/09/09 10:11:36;;;;;;;6.30;5.60;;;;;;;29.11;48.97;100382.53;217835;1257;140454;-78
2023/09/09 10:16:43;;;;;;;12.60;6.10;;;;;;;29.22;49.70;100383.97;217702;1257;139505;-78
2023/09/09 10:21:49;;;;;;;5.70;5.30;;;;;;;29.24;49.28;100377.29;217820;1256;141035;-78
2023/09/09 10:26:53;;;;;;;6.40;5.70;;;;;;;29.11;48.56;100367.84;217756;1257;140789;-78
2023/09/09 10:32:01;;;;;;;5.40;5.00;;;;;;;29.02;48.12;100367.89;217740;1257;141163;-80
2023/09/09 10:37:09;;;;;;;7.60;5.60;;;;;;;29.01;47.87;100361.90;217570;1256;140876;-77
2023/09/09 10:42:14;;;;;;;6.10;5.60;;;;;;;28.99;47.52;100360.28;217571;1260;139755;-86
2023/09/09 10:47:19;;;;;;;8.20;5.90;;;;;;;28.92;47.98;100355.49;217769;1257;140645;-82
2023/09/09 10:52:35;;;;;;;6.20;5.40;;;;;;;28.98;47.94;100354.75;216640;1257;1269986;-74
2023/09/09 10:57:41;;;;;;;22.10;7.60;;;;;;;28.87;47.85;100356.65;217656;1260;140457;-75
2023/09/09 11:02:47;;;;;;;6.60;6.00;;;;;;;28.81;48.06;100351.49;217886;1256;140076;-74
2023/09/09 11:07:51;;;;;;;6.90;5.90;;;;;;;28.90;48.27;100351.33;217717;1257;139829;-76
2023/09/09 11:12:58;;;;;;;6.50;6.00;;;;;;;29.00;48.40;100351.30;217660;1257;139973;-75
2023/09/09 11:18:03;;;;;;;7.80;6.20;;;;;;;29.04;48.00;100347.80;219016;1257;140427;-79
2023/09/09 11:23:06;;;;;;;6.20;5.70;;;;;;;28.71;46.95;100345.37;218484;1256;140196;-75
2023/09/09 11:28:10;;;;;;;5.00;4.60;;;;;;;28.65;47.32;100341.80;218421;1256;140608;-77
2023/09/09 11:33:26;;;;;;;6.60;5.80;;;;;;;28.71;46.96;100338.48;217671;1260;139612;-79
2023/09/09 11:38:31;;;;;;;7.50;5.50;;;;;;;28.72;47.31;100335.61;217784;1258;140020;-83
2023/09/09 11:43:36;;;;;;;15.70;6.00;;;;;;;28.79;46.80;100336.62;217682;1257;139750;-75
2023/09/09 11:48:40;;;;;;;7.30;6.40;;;;;;;28.74;46.52;100338.08;218216;1257;139724;-75
2023/09/09 11:53:48;;;;;;;6.80;6.30;;;;;;;28.79;46.25;100340.63;218331;1257;139130;-89
2023/09/09 11:58:52;;;;;;;6.30;5.70;;;;;;;28.70;46.04;100334.77;217905;1257;139954;-89
2023/09/09 12:04:06;;;;;;;5.60;5.10;;;;;;;28.84;46.25;100329.73;218207;1257;139914;-89
2023/09/09 12:09:13;;;;;;;6.40;5.80;;;;;;;29.12;46.59;100328.36;218194;1257;139766;-88
2023/09/09 12:14:18;;;;;;;6.10;5.60;;;;;;;29.33;45.70;100324.30;217762;1257;139732;-79
2023/09/09 12:19:21;;;;;;;6.40;5.50;;;;;;;29.46;45.23;100323.38;218414;1260;151923;-75
2023/09/09 12:24:25;;;;;;;7.90;5.80;;;;;;;29.62;44.52;100316.95;217837;1256;140592;-77
2023/09/09 12:29:30;;;;;;;8.00;6.20;;;;;;;29.77;44.48;100311.20;217668;1256;139534;-80
2023/09/09 12:34:34;;;;;;;7.30;6.10;;;;;;;29.90;43.89;100310.76;217813;1260;140360;-80
2023/09/09 12:39:37;;;;;;;6.10;5.50;;;;;;;29.92;43.86;100313.41;217672;1260;140151;-78
2023/09/09 12:44:51;;;;;;;6.50;5.90;;;;;;;29.76;43.23;100309.83;217668;1257;139660;-78
2023/09/09 12:49:55;;;;;;;6.90;6.10;;;;;;;29.80;44.07;100305.92;217697;1260;139817;-80
2023/09/09 12:54:59;;;;;;;5.40;4.90;;;;;;;29.71;44.04;100304.04;217628;1260;140880;-80
2023/09/09 13:00:04;;;;;;;7.30;6.00;;;;;;;29.45;43.96;100293.61;217758;1260;139336;-82
2023/09/09 13:05:09;;;;;;;8.80;6.70;;;;;;;29.29;43.87;100293.27;217511;1258;140051;-80
2023/09/09 13:10:13;;;;;;;6.80;6.30;;;;;;;29.27;44.47;100292.73;218047;1260;143513;-76
2023/09/09 13:15:16;;;;;;;7.00;6.30;;;;;;;29.45;44.39;100293.77;217838;1257;140089;-79
2023/09/09 13:20:19;;;;;;;7.50;6.70;;;;;;;29.53;44.45;100288.52;217507;1260;139953;-91
2023/09/09 13:25:23;;;;;;;6.40;5.80;;;;;;;29.53;44.38;100289.55;217799;1256;140847;-83
2023/09/09 13:30:26;;;;;;;13.20;6.80;;;;;;;29.44;44.24;100296.65;217895;1260;139542;-81
2023/09/09 13:35:30;;;;;;;7.90;7.10;;;;;;;29.34;44.38;100294.11;218414;1257;139931;-80
2023/09/09 13:40:35;;;;;;;8.60;7.00;;;;;;;29.27;44.67;100294.88;217411;1256;141097;-79
2023/09/09 13:45:38;;;;;;;7.30;6.80;;;;;;;29.22;44.77;100292.27;217650;1256;140658;-78
2023/09/09 13:50:42;;;;;;;7.30;6.60;;;;;;;29.21;44.44;100284.56;218059;1257;141411;-80
2023/09/09 13:55:45;;;;;;;7.90;7.10;;;;;;;29.21;44.79;100285.48;217497;1260;140590;-77
2023/09/09 14:00:50;;;;;;;6.40;5.20;;;;;;;29.22;44.29;100282.38;217810;1257;140363;-79
2023/09/09 14:05:57;;;;;;;7.80;7.10;;;;;;;29.06;44.00;100281.52;217494;1257;141207;-83
2023/09/09 14:11:02;;;;;;;8.10;7.00;;;;;;;28.87;44.40;100275.28;217553;1257;139739;-79
2023/09/09 14:16:05;;;;;;;;;;;;;;;28.71;44.32;100273.07;217886;1256;139700;-80
2023/09/09 14:21:09;;;;;;;11.00;7.20;;;;;;;28.56;44.88;100270.87;217892;1260;126747;-77
2023/09/09 14:26:22;;;;;;;9.30;6.00;;;;;;;28.57;45.20;100267.45;217572;1260;140747;-73
2023/09/09 14:31:27;;;;;;;8.40;7.00;;;;;;;28.43;45.03;100264.18;217582;1260;140944;-75
2023/09/09 14:36:37;;;;;;;9.10;6.30;;;;;;;28.31;44.69;100260.09;218049;1259;140443;-76
2023/09/09 14:41:44;;;;;;;7.50;6.60;;;;;;;28.32;44.85;100259.05;217825;1256;250851;-77
2023/09/09 14:46:48;;;;;;;17.80;8.00;;;;;;;28.24;44.95;100258.45;217998;1257;142204;-72
2023/09/09 14:51:51;;;;;;;6.80;6.20;;;;;;;28.22;45.27;100258.38;217892;1256;140435;-75
2023/09/09 14:56:55;;;;;;;9.20;6.40;;;;;;;28.17;44.69;100255.98;217634;1256;139316;-77
2023/09/09 15:01:59;;;;;;;11.00;6.50;;;;;;;28.03;45.09;100252.25;218083;1256;140661;-85
2023/09/09 15:07:05;;;;;;;10.80;6.60;;;;;;;27.85;45.26;100243.12;217439;1257;141914;-85
2023/09/09 15:12:11;;;;;;;8.80;6.30;;;;;;;27.68;46.25;100247.09;217951;1259;139062;-82
2023/09/09 15:17:19;;;;;;;7.50;6.60;;;;;;;27.55;46.55;100246.73;218540;1257;141255;-73
2023/09/09 15:22:25;;;;;;;10.70;7.10;;;;;;;27.38;47.28;100249.33;218188;1257;140131;-85
2023/09/09 15:27:28;;;;;;;8.80;7.40;;;;;;;27.22;49.05;100239.45;218449;1257;140726;-85
2023/09/09 15:32:32;;;;;;;7.10;6.50;;;;;;;27.08;50.13;100238.08;218453;1256;139667;-71
2023/09/09 15:37:37;;;;;;;7.80;7.00;;;;;;;26.94;50.94;100239.09;217520;1256;140374;-75
2023/09/09 15:42:46;;;;;;;8.70;6.80;;;;;;;26.74;51.27;100236.73;217840;1260;139530;-72
2023/09/09 15:47:50;;;;;;;8.90;7.80;;;;;;;26.61;51.66;100237.63;217639;1256;139810;-69
2023/09/09 15:52:53;;;;;;;8.40;6.60;;;;;;;26.49;52.23;100235.18;217777;1256;139439;-85
2023/09/09 15:57:57;;;;;;;10.00;8.30;;;;;;;26.36;53.17;100234.48;217729;1256;139709;-75
2023/09/09 16:03:01;;;;;;;8.60;7.70;;;;;;;26.20;53.76;100234.60;217960;1256;141549;-76
2023/09/09 16:08:07;;;;;;;9.70;8.30;;;;;;;26.02;54.60;100232.55;218201;1257;140300;-77
2023/09/09 16:13:13;;;;;;;12.60;8.20;;;;;;;25.82;55.22;100226.08;217733;1257;140436;-84
2023/09/09 16:18:24;;;;;;;8.80;8.00;;;;;;;25.60;55.72;100217.11;217832;1259;139718;-90
2023/09/09 16:23:32;;;;;;;9.80;8.90;;;;;;;25.40;56.15;100223.30;217918;1257;139891;-88
2023/09/09 16:28:42;;;;;;;10.90;8.30;;;;;;;25.18;56.76;100223.54;217654;1257;139434;-75
2023/09/09 16:33:46;;;;;;;29.40;9.50;;;;;;;24.96;57.32;100223.61;217663;1257;141643;-80
2023/09/09 16:38:52;;;;;;;9.40;8.30;;;;;;;24.75;58.11;100222.20;217928;1259;139678;-88
2023/09/09 16:43:55;;;;;;;10.80;8.70;;;;;;;24.54;58.76;100223.52;217560;1256;139976;-78
2023/09/09 16:48:59;;;;;;;9.60;8.40;;;;;;;24.31;59.07;100221.06;217644;1257;140554;-80
2023/09/09 16:54:02;;;;;;;9.20;8.40;;;;;;;24.08;59.82;100220.33;217817;1260;140713;-80
2023/09/09 16:59:04;;;;;;;9.30;8.40;;;;;;;23.85;60.26;100222.14;217564;1257;141214;-77
2023/09/09 17:04:09;;;;;;;10.40;8.50;;;;;;;23.53;60.70;100218.17;217954;1257;140467;-77
2023/09/09 17:09:12;;;;;;;8.20;7.50;;;;;;;23.21;61.29;100219.79;217785;1257;140730;-75
2023/09/09 17:14:18;;;;;;;9.20;8.30;;;;;;;22.96;61.58;100218.88;217904;1260;140333;-76
2023/09/09 17:19:21;;;;;;;18.50;10.10;;;;;;;22.72;62.31;100217.17;217636;1256;142290;-75
2023/09/09 17:24:27;;;;;;;24.70;11.30;;;;;;;22.57;62.92;100218.80;218103;1257;141675;-81
2023/09/09 17:29:30;;;;;;;9.80;8.80;;;;;;;22.43;63.32;100224.27;217702;1257;142799;-71
2023/09/09 17:34:41;;;;;;;21.00;14.20;;;;;;;22.24;63.46;100224.91;217744;1256;140546;-88
2023/09/09 17:39:45;;;;;;;22.30;16.60;;;;;;;21.99;63.74;100231.42;217580;1257;140438;-77
2023/09/09 17:44:54;;;;;;;24.60;17.50;;;;;;;21.75;64.00;100235.03;217858;1256;142146;-80
2023/09/09 17:49:57;;;;;;;16.50;14.40;;;;;;;21.61;64.21;100235.16;217627;1257;140970;-74
2023/09/09 17:54:59;;;;;;;25.60;16.00;;;;;;;21.41;64.52;100241.58;217734;1260;140450;-74
2023/09/09 18:00:03;;;;;;;17.70;14.90;;;;;;;21.12;64.84;100246.70;217784;1256;141409;-76
2023/09/09 18:05:06;;;;;;;17.40;13.30;;;;;;;20.93;65.54;100256.91;217410;1260;141961;-77
2023/09/09 18:10:09;;;;;;;22.70;16.30;;;;;;;20.80;65.87;100257.73;218299;1256;141048;-87
2023/09/09 18:15:12;;;;;;;19.40;15.30;;;;;;;20.66;66.17;100261.75;218066;1259;140717;-84
2023/09/09 18:20:16;;;;;;;23.50;14.90;;;;;;;20.53;66.45;100266.54;218025;1257;142099;-78
2023/09/09 18:25:18;;;;;;;22.60;13.70;;;;;;;20.40;66.81;100270.63;218130;1256;140912;-78
2023/09/09 18:30:24;;;;;;;18.50;14.30;;;;;;;20.22;66.84;100268.83;217533;1257;141243;-72
2023/09/09 18:35:27;;;;;;;16.30;13.70;;;;;;;20.01;67.03;100270.92;217771;1257;141617;-76
2023/09/09 18:40:33;;;;;;;22.40;15.90;;;;;;;19.77;67.39;100274.53;218242;1260;141249;-75
2023/09/09 18:45:36;;;;;;;21.30;13.90;;;;;;;19.63;67.99;100276.52;217625;1260;140383;-78
2023/09/09 18:50:39;;;;;;;18.60;13.50;;;;;;;19.56;68.25;100276.75;218511;1257;141442;-81
2023/09/09 18:55:42;;;;;;;22.50;14.00;;;;;;;19.47;68.54;100273.54;218057;1256;141363;-80
2023/09/09 19:00:45;;;;;;;21.20;13.90;;;;;;;19.38;68.76;100276.55;218155;1256;141559;-78
2023/09/09 19:05:49;;;;;;;25.10;14.40;;;;;;;19.23;68.93;100271.06;218292;1257;141590;-79
2023/09/09 19:10:53;;;;;;;16.30;14.10;;;;;;;19.00;69.19;100272.31;218818;1257;140549;-74
2023/09/09 19:15:57;;;;;;;14.90;13.30;;;;;;;18.91;69.74;100271.99;218150;1257;140721;-81
2023/09/09 19:21:01;;;;;;;21.70;12.50;;;;;;;18.87;70.00;100270.66;217939;1260;141218;-87
2023/09/09 19:26:05;;;;;;;13.70;12.40;;;;;;;18.69;69.85;100273.31;217802;1257;141064;-77
2023/09/09 19:31:08;;;;;;;15.10;13.50;;;;;;;18.56;70.26;100275.16;219010;1259;142411;-77
2023/09/09 19:36:11;;;;;;;19.20;13.50;;;;;;;18.40;70.25;100274.37;217719;1260;140903;-79
2023/09/09 19:41:13;;;;;;;26.80;12.60;;;;;;;18.28;70.65;100271.49;217693;1257;140420;-84
2023/09/09 19:46:16;;;;;;;17.60;13.50;;;;;;;18.24;70.93;100272.62;218266;1260;140455;-87
2023/09/09 19:51:20;;;;;;;21.90;13.50;;;;;;;18.19;70.99;100269.77;217519;1256;141315;-82
2023/09/09 19:56:27;;;;;;;18.50;14.70;;;;;;;18.09;71.08;100263.08;218002;1260;140926;-79
2023/09/09 20:01:31;;;;;;;22.80;13.10;;;;;;;17.97;71.23;100264.50;218030;1256;141983;-78
2023/09/09 20:06:35;;;;;;;16.40;13.00;;;;;;;17.73;71.12;100264.11;218119;1260;141109;-79
2023/09/09 20:11:43;;;;;;;22.20;12.80;;;;;;;17.61;71.52;100270.93;217696;1260;141909;-78
2023/09/09 20:16:50;;;;;;;20.20;14.60;;;;;;;17.46;71.76;100266.42;217823;1256;141122;-80
2023/09/09 20:21:52;;;;;;;18.90;13.90;;;;;;;17.29;72.22;100269.20;217652;1257;140655;-81
2023/09/09 20:26:55;;;;;;;28.10;15.00;;;;;;;17.14;72.51;100273.52;217502;1259;140652;-74
2023/09/09 20:31:58;;;;;;;22.80;15.10;;;;;;;17.05;72.99;100274.27;217841;1261;141911;-82
2023/09/09 20:37:01;;;;;;;31.70;14.90;;;;;;;17.05;73.35;100271.83;217730;1257;141176;-79
2023/09/09 20:42:06;;;;;;;15.30;12.70;;;;;;;17.03;73.41;100271.02;217884;1257;140925;-77
2023/09/09 20:47:09;;;;;;;26.80;15.00;;;;;;;17.00;73.43;100275.73;217990;1260;142002;-84
2023/09/09 20:52:13;;;;;;;26.70;16.20;;;;;;;16.86;73.30;100274.01;218126;1261;141449;-73
2023/09/09 20:57:15;;;;;;;29.10;14.50;;;;;;;16.71;73.65;100270.39;217449;1256;142219;-73
2023/09/09 21:02:17;;;;;;;19.70;15.20;;;;;;;16.63;73.96;100274.90;217541;1259;140537;-77
2023/09/09 21:07:22;;;;;;;21.60;14.80;;;;;;;16.62;74.32;100279.73;218069;1257;140467;-81
2023/09/09 21:12:25;;;;;;;21.10;15.00;;;;;;;16.59;74.18;100276.64;217679;1261;141848;-74
2023/09/09 21:17:27;;;;;;;25.60;17.10;;;;;;;16.41;74.01;100277.14;217589;1256;140619;-83
2023/09/09 21:22:30;;;;;;;20.40;15.40;;;;;;;16.25;74.57;100272.03;218499;1256;141006;-79
2023/09/09 21:27:33;;;;;;;21.40;15.40;;;;;;;16.15;74.95;100274.71;219598;1256;141282;-73
2023/09/09 21:32:36;;;;;;;20.90;15.00;;;;;;;16.06;75.26;100272.27;219216;1256;141048;-80
2023/09/09 21:37:38;;;;;;;18.90;15.40;;;;;;;15.99;75.54;100270.44;217621;1260;141305;-69
2023/09/09 21:42:41;;;;;;;18.20;15.20;;;;;;;15.90;75.72;100273.16;218131;1257;141030;-80
2023/09/09 21:47:43;;;;;;;17.00;15.20;;;;;;;15.81;76.13;100276.33;219191;1260;141549;-76
2023/09/09 21:52:45;;;;;;;19.20;13.80;;;;;;;15.73;76.29;100272.70;218089;1256;140423;-78
2023/09/09 21:57:48;;;;;;;20.40;15.00;;;;;;;15.65;76.40;100266.71;217811;1257;141801;-80
2023/09/09 22:02:55;;;;;;;18.70;15.30;;;;;;;15.60;76.34;100258.70;218030;1256;224201;-77
2023/09/09 22:07:59;;;;;;;15.50;13.60;;;;;;;15.58;76.57;100259.84;217612;1257;141568;-73
2023/09/09 22:13:03;;;;;;;20.60;16.00;;;;;;;15.58;76.51;100255.80;217703;1257;140546;-69
2023/09/09 22:18:06;;;;;;;19.30;16.50;;;;;;;15.49;76.34;100255.95;218295;1257;142131;-76
2023/09/09 22:23:10;;;;;;;18.90;13.20;;;;;;;15.41;76.59;100255.92;217904;1260;141368;-77
2023/09/09 22:28:14;;;;;;;17.40;14.20;;;;;;;15.32;76.80;100253.98;217869;1259;140717;-72
2023/09/09 22:33:17;;;;;;;19.00;14.00;;;;;;;15.19;77.07;100250.44;218195;1257;140373;-70
2023/09/09 22:38:20;;;;;;;17.40;15.60;;;;;;;15.11;77.39;100250.23;217438;1262;140659;-69
2023/09/09 22:43:23;;;;;;;16.10;14.20;;;;;;;15.08;77.43;100247.84;217793;1262;141436;-74